This is the latest recevied weather packets stored in our database for station/object NW5W-12. If no packets are shown the sender has not sent any weather packets the latest 1 day(s).
| Time | Temp. | Humidity | Pressure | Rain* | Wind** | Luminosity | Snow |
|---|---|---|---|---|---|---|---|
| 1836274626 | 16.67° C | 41% | 1020.5 hPa | 0 mm | 0 m/s | - | - |
| 1836274625 | 16.67° C | 42% | 1020.5 hPa | 0 mm | 0.89 m/s, 116° | - | - |
| 1836274476 | 16.67° C | 42% | 1020.5 hPa | 0 mm | 0.45 m/s, 96° | - | - |
| 1836274476 | 17.78° C | 47% | 0 hPa | 0 mm | 0 m/s | - | - |
| 1836274326 | 17.22° C | 41% | 1020.4 hPa | 0 mm | 0 m/s | - | - |
| 1836274325 | 18.33° C | 46% | 0 hPa | 0 mm | 0 m/s | - | - |
| 1836274175 | 17.78° C | 47% | 0 hPa | 0 mm | 0 m/s | - | - |
| 1836274175 | 16.67° C | 43% | 1020.5 hPa | 0 mm | 0 m/s | - | - |
| 1836274026 | 17.22° C | 40% | 1020.4 hPa | 0 mm | 0.45 m/s, 99° | - | - |
| 1836274025 | 18.33° C | 46% | 0 hPa | 0 mm | 0 m/s | - | - |
| 1778063142 | 2.22° C | 96% | 1015.3 hPa | 3.56 mm | 1.79 m/s, 331° | - | - |
| 1778062842 | 2.22° C | 96% | 1015.2 hPa | 3.56 mm | 2.68 m/s, 319° | - | - |
| 1778062542 | 2.22° C | 96% | 1015.1 hPa | 3.56 mm | 3.58 m/s, 307° | - | - |
| 1778062242 | 2.78° C | 95% | 1015.1 hPa | 3.56 mm | 3.13 m/s, 307° | - | - |
| 1778061942 | 2.78° C | 95% | 1014.9 hPa | 3.56 mm | 2.24 m/s, 301° | - | - |
| 1778061642 | 2.78° C | 95% | 1014.9 hPa | 3.56 mm | 3.13 m/s, 311° | - | - |
| 1778061342 | 3.33° C | 94% | 1014.7 hPa | 3.56 mm | 4.47 m/s, 309° | - | - |
| 1778061042 | 3.89° C | 94% | 1014.7 hPa | 3.56 mm | 4.02 m/s, 310° | - | - |
| 1778060742 | 3.89° C | 93% | 1014.6 hPa | 3.56 mm | 3.13 m/s, 309° | - | - |
| 1778060442 | 3.89° C | 92% | 1014.6 hPa | 3.56 mm | 2.68 m/s, 313° | - | - |
| 1778059842 | 3.89° C | 92% | 1014.5 hPa | 3.56 mm | 3.13 m/s, 321° | - | - |
| 1778059542 | 3.89° C | 94% | 1014.5 hPa | 3.81 mm | 3.13 m/s, 313° | - | - |
| 1778059242 | 3.89° C | 94% | 1014.5 hPa | 3.81 mm | 1.79 m/s, 267° | - | - |
| 1778058942 | 3.89° C | 93% | 1014.6 hPa | 3.3 mm | 1.34 m/s, 335° | - | - |
| 1778058642 | 3.89° C | 93% | 1014.6 hPa | 3.3 mm | 0.45 m/s, 258° | - | - |
* Rain since midnight (hover to see other rain measurements)
** Current wind speed in m/s (hover to see current wind gust speed)